Time;durP1;ratioP1;P1;durP2;ratioP2;P2;SDS_P1;SDS_P2;PMS_P1;PMS_P2;Temp;Humidity;BMP_temperature;BMP_pressure;BME280_temperature;BME280_humidity;BME280_pressure;Samples;Min_cycle;Max_cycle;Signal;HPM_P1;HPM_P2
2022/09/16 00:02:18;;;;;;;11.60;2.80;;;;;;;23.07;63.53;96714.25;5113962;27;20023;-78
2022/09/16 00:04:44;;;;;;;13.43;3.00;;;;;;;22.67;65.25;96715.66;5097061;27;20031;-78
2022/09/16 00:07:09;;;;;;;18.30;2.83;;;;;;;22.41;66.35;96728.88;5113968;27;20058;-78
2022/09/16 00:09:37;;;;;;;6.50;2.70;;;;;;;22.12;67.62;96727.84;5131865;27;20474;-78
2022/09/16 00:12:03;;;;;;;16.25;2.83;;;;;;;22.07;68.30;96740.34;5113764;27;20399;-79
2022/09/16 00:14:29;;;;;;;14.10;2.90;;;;;;;21.93;69.10;96749.34;5113828;28;20458;-79
2022/09/16 00:16:54;;;;;;;12.43;2.83;;;;;;;21.90;69.54;96747.00;5096710;27;20031;-79
2022/09/16 00:19:20;;;;;;;6.82;2.55;;;;;;;21.92;70.11;96753.09;5096733;27;20034;-79
2022/09/16 00:21:46;;;;;;;4.97;2.28;;;;;;;21.89;69.18;96748.00;5096688;28;20023;-79
2022/09/16 00:24:14;;;;;;;9.07;2.38;;;;;;;21.86;69.15;96754.66;5113633;28;20030;-79
2022/09/16 00:26:40;;;;;;;8.98;2.38;;;;;;;21.82;69.06;96745.16;5114206;28;20011;-78
2022/09/16 00:29:06;;;;;;;8.32;2.45;;;;;;;21.81;67.55;96743.44;5131837;28;20027;-80
2022/09/16 00:31:31;;;;;;;3.30;1.90;;;;;;;21.89;67.85;96765.19;5113945;28;20094;-79
2022/09/16 00:33:57;;;;;;;6.93;2.17;;;;;;;21.90;67.09;96761.44;5116083;27;20072;-79
2022/09/16 00:36:22;;;;;;;4.50;2.13;;;;;;;21.90;67.76;96761.44;5117906;27;20023;-79
2022/09/16 00:38:53;;;;;;;7.68;2.20;;;;;;;21.94;67.72;96760.03;5100531;27;20046;-80
2022/09/16 00:41:23;;;;;;;10.23;2.58;;;;;;;21.89;67.41;96769.78;5101064;27;20394;-79
2022/09/16 00:44:00;;;;;;;9.85;2.22;;;;;;;21.92;66.97;96780.31;5101160;27;20452;-79
2022/09/16 00:46:35;;;;;;;3.72;1.88;;;;;;;21.95;66.90;96763.63;5101045;27;20053;-79
2022/09/16 00:49:05;;;;;;;7.47;2.53;;;;;;;21.98;66.78;96768.69;5134737;27;20466;-79
2022/09/16 00:51:30;;;;;;;14.88;2.55;;;;;;;22.02;66.01;96764.56;5100501;27;20092;-79
2022/09/16 00:54:02;;;;;;;13.32;2.33;;;;;;;22.06;66.16;96771.31;5117462;27;20030;-80
2022/09/16 00:56:29;;;;;;;11.70;2.53;;;;;;;22.13;66.48;96784.03;5117329;27;20019;-80
2022/09/16 00:59:01;;;;;;;10.63;2.80;;;;;;;22.17;66.05;96789.09;5117777;27;20030;-80
2022/09/16 01:01:27;;;;;;;10.02;2.67;;;;;;;22.26;64.91;96772.50;5135846;27;20027;-80
2022/09/16 01:03:55;;;;;;;8.68;2.35;;;;;;;22.34;65.19;96779.72;5117565;27;20335;-79
2022/09/16 01:06:22;;;;;;;6.20;1.80;;;;;;;22.47;63.82;96769.03;5117420;27;20030;-78
2022/09/16 01:08:49;;;;;;;9.98;2.55;;;;;;;22.55;64.30;96785.28;5100143;27;20398;-80
2022/09/16 01:11:14;;;;;;;6.45;1.98;;;;;;;22.60;64.88;96791.03;5100055;27;20027;-80
2022/09/16 01:13:40;;;;;;;5.88;2.25;;;;;;;22.64;65.28;96792.34;5100311;27;20075;-79
2022/09/16 01:16:09;;;;;;;12.65;2.55;;;;;;;22.65;62.38;96789.44;5099971;27;20019;-79
2022/09/16 01:18:39;;;;;;;6.80;2.25;;;;;;;22.82;62.37;96792.84;5099930;27;20482;-79
2022/09/16 01:21:43;;;;;;;10.65;2.38;;;;;;;22.88;62.53;96783.91;5117449;27;20106;-80
2022/09/16 01:24:20;;;;;;;9.48;2.50;;;;;;;22.95;61.79;96770.34;5117176;27;20039;-79
2022/09/16 01:27:04;;;;;;;6.57;2.20;;;;;;;23.09;61.14;96770.31;5136225;27;20405;-79
2022/09/16 01:29:51;;;;;;;8.85;2.28;;;;;;;23.23;58.48;96753.03;5112888;27;20114;-79
2022/09/16 01:32:30;;;;;;;13.55;2.88;;;;;;;23.37;56.84;96748.56;5135908;27;20023;-80
2022/09/16 01:35:05;;;;;;;7.05;2.00;;;;;;;23.69;54.21;96728.97;5134237;27;20031;-79
2022/09/16 01:37:40;;;;;;;9.95;2.17;;;;;;;24.00;52.88;96731.31;5116715;27;20497;-79
2022/09/16 01:40:30;;;;;;;8.10;2.40;;;;;;;24.29;52.43;96735.78;5099604;27;20478;-80
2022/09/16 01:43:20;;;;;;;8.65;2.13;;;;;;;25.03;49.08;96712.19;5099295;27;20034;-79
2022/09/16 01:45:56;;;;;;;16.67;2.38;;;;;;;25.44;47.54;96708.50;5112741;27;20027;-80
2022/09/16 01:48:41;;;;;;;7.90;1.67;;;;;;;26.04;45.65;96710.22;5115048;27;20422;-80
2022/09/16 01:51:12;;;;;;;11.73;2.80;;;;;;;26.21;45.57;96711.53;5100213;27;20023;-78
2022/09/16 01:53:47;;;;;;;5.38;2.33;;;;;;;26.18;45.58;96699.06;5134065;27;20019;-79
2022/09/16 01:56:34;;;;;;;14.73;2.80;;;;;;;26.20;47.30;96707.94;5116140;27;20416;-80
2022/09/16 01:59:06;;;;;;;9.02;2.35;;;;;;;25.92;50.04;96700.97;5111810;27;20062;-80
2022/09/16 02:01:53;;;;;;;7.60;2.40;;;;;;;25.65;51.32;96692.75;5134553;27;20517;-80
2022/09/16 02:04:26;;;;;;;7.32;2.50;;;;;;;25.28;52.37;96685.09;5135018;27;20025;-80
2022/09/16 02:06:53;;;;;;;9.68;2.42;;;;;;;25.12;52.77;96682.72;5115984;27;20027;-80
2022/09/16 02:09:27;;;;;;;5.47;2.03;;;;;;;25.00;52.60;96679.75;5099276;27;20031;-80
2022/09/16 02:11:54;;;;;;;9.57;2.38;;;;;;;24.93;52.19;96678.88;5115951;27;20444;-79
2022/09/16 02:14:31;;;;;;;9.85;2.25;;;;;;;24.85;51.70;96676.34;5116140;27;20492;-79
2022/09/16 02:17:02;;;;;;;8.45;2.13;;;;;;;24.83;52.04;96667.47;5115858;27;20030;-80
2022/09/16 02:19:33;;;;;;;6.55;2.42;;;;;;;24.78;52.72;96667.22;5116191;27;20034;-80
2022/09/16 02:22:02;;;;;;;9.45;2.20;;;;;;;24.69;51.97;96654.78;5090608;27;20414;-80
2022/09/16 02:24:28;;;;;;;7.18;2.30;;;;;;;24.61;51.88;96635.81;5116041;27;20051;-80
2022/09/16 02:27:02;;;;;;;10.85;2.85;;;;;;;24.52;52.62;96631.56;5115759;27;20062;-79
2022/09/16 02:29:32;;;;;;;9.05;3.03;;;;;;;24.21;54.61;96637.50;5116292;27;20031;-79
2022/09/16 02:32:00;;;;;;;13.40;3.40;;;;;;;24.09;53.96;96639.94;5098456;27;20033;-79
2022/09/16 02:34:30;;;;;;;8.00;2.90;;;;;;;24.06;52.90;96621.22;5115978;27;20409;-80
2022/09/16 02:37:00;;;;;;;9.25;3.00;;;;;;;24.06;53.60;96620.34;5115689;27;20091;-78
2022/09/16 02:39:31;;;;;;;11.05;2.50;;;;;;;24.22;52.26;96628.28;5105179;28;20082;-79
2022/09/16 02:41:58;;;;;;;11.57;2.75;;;;;;;24.53;49.00;96625.91;5111718;28;20470;-79
2022/09/16 02:44:24;;;;;;;16.63;2.72;;;;;;;24.65;48.91;96631.59;5086635;28;20027;-80
2022/09/16 02:47:11;;;;;;;8.52;2.08;;;;;;;24.94;47.75;96635.94;5099959;28;20023;-79
2022/09/16 02:49:56;;;;;;;21.73;3.30;;;;;;;25.00;48.38;96635.97;5103645;28;20452;-79
2022/09/16 02:52:32;;;;;;;10.35;2.22;;;;;;;25.07;47.77;96625.03;5060632;28;20088;-79
2022/09/16 02:55:12;;;;;;;11.80;2.03;;;;;;;25.16;46.78;96613.66;5068233;28;20559;-79
2022/09/16 02:57:38;;;;;;;11.35;2.03;;;;;;;25.37;46.05;96618.13;5086090;28;20027;-79
2022/09/16 03:00:05;;;;;;;13.35;2.33;;;;;;;25.57;45.55;96640.91;5118841;27;20544;-79
2022/09/16 03:02:34;;;;;;;11.63;2.60;;;;;;;25.61;45.56;96624.88;5075799;28;20028;-79
2022/09/16 03:05:00;;;;;;;13.05;2.25;;;;;;;25.64;44.97;96629.94;5068598;28;20111;-79
2022/09/16 03:07:26;;;;;;;7.18;1.42;;;;;;;25.70;45.00;96620.88;5060434;28;20028;-80
2022/09/16 03:09:52;;;;;;;13.55;2.42;;;;;;;25.79;45.42;96625.06;5102349;28;20023;-79
2022/09/16 03:12:23;;;;;;;8.48;3.22;;;;;;;25.73;45.27;96623.19;5089911;28;20395;-80
2022/09/16 03:14:58;;;;;;;18.30;3.17;;;;;;;25.64;45.94;96630.78;5083353;28;20479;-80
2022/09/16 03:17:50;;;;;;;11.48;3.85;;;;;;;25.48;46.92;96635.81;5102621;28;20027;-79
2022/09/16 03:21:03;;;;;;;21.38;4.60;;;;;;;25.27;47.87;96653.28;5075892;28;20028;-80
2022/09/16 03:23:47;;;;;;;;;;;;;;;25.04;48.43;96653.63;5100850;28;20032;-80
2022/09/16 03:26:31;;;;;;;17.52;3.38;;;;;;;24.77;49.29;96646.38;5110999;28;19912;-80
2022/09/16 03:29:00;;;;;;;7.25;2.28;;;;;;;24.57;50.87;96650.94;5118791;27;20030;-80
2022/09/16 03:31:25;;;;;;;8.38;2.95;;;;;;;24.33;51.94;96659.66;5120643;27;20027;-80
2022/09/16 03:34:03;;;;;;;29.83;2.85;;;;;;;24.12;52.69;96653.22;5117644;27;20475;-80
2022/09/16 03:36:32;;;;;;;12.52;2.38;;;;;;;24.00;53.66;96664.88;5077608;28;20107;-80
2022/09/16 03:38:59;;;;;;;19.48;3.38;;;;;;;23.86;53.99;96679.50;5105088;27;20494;-80
2022/09/16 03:41:28;;;;;;;10.55;3.13;;;;;;;23.76;54.60;96679.84;5114328;27;20026;-79
2022/09/16 03:43:54;;;;;;;8.75;2.58;;;;;;;23.68;55.04;96690.94;5114479;27;20041;-80
2022/09/16 03:46:22;;;;;;;12.23;2.35;;;;;;;23.63;54.43;96685.19;5114156;27;20043;-78
2022/09/16 03:48:47;;;;;;;17.23;2.65;;;;;;;23.59;55.40;96684.78;5114418;27;20083;-79
2022/09/16 03:51:13;;;;;;;13.23;2.47;;;;;;;23.61;55.63;96673.63;5114401;27;20057;-78
2022/09/16 03:53:39;;;;;;;10.05;3.03;;;;;;;23.67;54.48;96661.94;5114974;27;20033;-79
2022/09/16 03:56:05;;;;;;;12.75;3.10;;;;;;;23.71;54.99;96665.97;5097314;27;20421;-80
2022/09/16 03:58:30;;;;;;;17.35;3.25;;;;;;;23.65;55.69;96677.69;5114234;27;20030;-81
2022/09/16 04:00:56;;;;;;;19.80;4.13;;;;;;;23.60;55.60;96701.97;5114456;27;20110;-80
2022/09/16 04:03:21;;;;;;;14.15;6.45;;;;;;;23.62;55.94;96719.88;5096824;27;20493;-79
2022/09/16 04:05:55;;;;;;;33.17;6.30;;;;;;;23.66;56.15;96734.81;5114542;27;20034;-80
2022/09/16 04:08:20;;;;;;;12.35;4.72;;;;;;;23.67;55.76;96743.84;5113749;27;20125;-79
2022/09/16 04:10:56;;;;;;;9.07;2.42;;;;;;;23.74;54.32;96733.84;5096731;27;20062;-78
2022/09/16 04:13:23;;;;;;;12.32;2.90;;;;;;;23.75;54.64;96728.16;5113426;27;20023;-79
2022/09/16 04:15:48;;;;;;;9.38;2.53;;;;;;;23.78;54.36;96726.91;5114076;27;20023;-78
2022/09/16 04:18:15;;;;;;;8.40;2.90;;;;;;;23.83;54.75;96731.81;5113741;27;20390;-79
2022/09/16 04:20:41;;;;;;;10.10;3.15;;;;;;;23.87;54.77;96733.94;5115231;28;20509;-80
2022/09/16 04:23:07;;;;;;;18.63;3.20;;;;;;;23.86;54.94;96736.88;5097549;27;20466;-80
2022/09/16 04:25:32;;;;;;;16.77;3.88;;;;;;;23.89;55.02;96723.66;5115016;28;20026;-80
2022/09/16 04:27:58;;;;;;;12.65;3.95;;;;;;;23.90;54.27;96719.06;5113865;28;20023;-82
2022/09/16 04:30:24;;;;;;;13.50;4.55;;;;;;;23.98;53.61;96718.91;5113810;28;20415;-81
2022/09/16 04:32:56;;;;;;;30.58;7.53;;;;;;;24.03;55.13;96717.25;5113619;28;20019;-80
2022/09/16 04:35:23;;;;;;;37.38;11.27;;;;;;;24.02;54.56;96704.66;5113527;28;20410;-82
2022/09/16 04:37:49;;;;;;;30.27;8.07;;;;;;;24.09;55.10;96726.53;5096460;28;20431;-81
2022/09/16 04:40:15;;;;;;;27.92;4.47;;;;;;;23.98;55.72;96732.56;5130859;28;20133;-82
2022/09/16 04:42:47;;;;;;;36.17;9.85;;;;;;;23.92;56.28;96730.63;5113630;28;20390;-80
2022/09/16 04:45:12;;;;;;;24.48;6.93;;;;;;;23.92;56.10;96716.97;5096844;28;20037;-81
2022/09/16 04:47:38;;;;;;;22.33;5.13;;;;;;;23.97;56.21;96737.19;5096360;28;20027;-81
2022/09/16 04:50:03;;;;;;;17.98;4.38;;;;;;;24.03;55.96;96751.94;5113625;28;20130;-84
2022/09/16 04:52:29;;;;;;;14.13;4.63;;;;;;;24.13;56.22;96747.00;5096308;28;20106;-84
2022/09/16 04:54:55;;;;;;;12.38;3.70;;;;;;;24.16;54.81;96722.00;5115428;28;20015;-84
2022/09/16 04:57:21;;;;;;;26.20;5.03;;;;;;;24.43;54.46;96737.53;5098845;28;20027;-92
2022/09/16 04:59:46;;;;;;;23.98;4.53;;;;;;;24.52;54.53;96739.06;5101801;28;20494;-89
2022/09/16 05:02:12;;;;;;;16.98;5.63;;;;;;;24.65;54.01;96739.13;5105389;28;20084;-81
2022/09/16 05:04:37;;;;;;;13.55;3.00;;;;;;;24.75;52.93;96733.28;5111346;28;20031;-83
2022/09/16 05:07:03;;;;;;;19.23;5.97;;;;;;;24.95;53.35;96744.38;5096181;28;20019;-83
2022/09/16 05:09:28;;;;;;;9.98;2.53;;;;;;;25.04;50.02;96713.84;5094646;28;20402;-81
2022/09/16 05:11:54;;;;;;;8.93;3.10;;;;;;;25.38;49.76;96720.28;5111494;28;20016;-83
2022/09/16 05:14:20;;;;;;;14.85;3.28;;;;;;;25.49;49.60;96709.59;5112047;28;20470;-82
2022/09/16 05:16:45;;;;;;;11.25;3.42;;;;;;;25.67;48.05;96698.84;5111130;28;20035;-81
2022/09/16 05:19:12;;;;;;;21.73;3.08;;;;;;;26.13;47.62;96709.81;5112353;27;20505;-83
2022/09/16 05:21:39;;;;;;;11.13;2.90;;;;;;;26.36;48.26;96709.41;5114447;27;20106;-83
2022/09/16 05:24:07;;;;;;;14.82;3.60;;;;;;;26.62;48.02;96692.84;5098171;27;20060;-82
2022/09/16 05:26:34;;;;;;;11.25;2.15;;;;;;;26.83;45.96;96689.84;5100227;27;20037;-83
2022/09/16 05:29:05;;;;;;;17.48;2.38;;;;;;;27.27;45.19;96690.91;5097574;27;20031;-78
2022/09/16 05:31:34;;;;;;;10.05;2.65;;;;;;;28.12;43.01;96708.72;5098075;27;20026;-78
2022/09/16 05:34:17;;;;;;;8.15;2.45;;;;;;;29.18;41.00;96690.81;5097756;27;20047;-77
2022/09/16 05:36:46;;;;;;;7.78;2.92;;;;;;;30.11;40.81;96691.16;5097878;27;20031;-78
2022/09/16 05:39:12;;;;;;;18.40;2.63;;;;;;;31.02;39.06;96684.97;5097204;27;20055;-78
2022/09/16 05:41:38;;;;;;;28.27;2.35;;;;;;;32.02;36.62;96690.78;5097698;27;20393;-78
2022/09/16 05:44:05;;;;;;;7.15;1.80;;;;;;;33.17;36.07;96674.28;5114322;27;20039;-75
2022/09/16 05:46:31;;;;;;;7.82;1.60;;;;;;;33.73;34.45;96665.50;5097368;27;20492;-76
2022/09/16 05:48:57;;;;;;;9.23;1.83;;;;;;;33.58;35.13;96653.38;5097484;27;20422;-75
2022/09/16 05:51:24;;;;;;;17.92;2.65;;;;;;;33.49;35.50;96650.25;5097770;27;20039;-80
2022/09/16 05:53:50;;;;;;;11.00;2.72;;;;;;;33.50;35.17;96651.91;5115013;27;20027;-77
2022/09/16 05:56:19;;;;;;;14.55;2.72;;;;;;;33.30;34.75;96648.91;5097324;27;20497;-76
2022/09/16 05:58:45;;;;;;;7.38;2.53;;;;;;;33.15;34.96;96640.44;5114553;27;20038;-75
2022/09/16 06:01:22;;;;;;;7.45;3.05;;;;;;;32.68;35.78;96632.59;5113828;27;20406;-76
2022/09/16 06:03:49;;;;;;;13.90;2.30;;;;;;;32.81;36.82;96625.00;5096972;27;20534;-76
2022/09/16 06:06:20;;;;;;;9.40;2.97;;;;;;;33.00;36.54;96634.69;5096881;27;20130;-76
2022/09/16 06:08:46;;;;;;;8.02;2.58;;;;;;;33.33;35.31;96634.53;5131148;27;20027;-76
2022/09/16 06:11:12;;;;;;;11.25;2.70;;;;;;;33.49;34.62;96630.81;5096827;27;20402;-77
2022/09/16 06:13:37;;;;;;;17.77;2.40;;;;;;;33.42;35.49;96627.41;5114229;27;20054;-75
2022/09/16 06:16:05;;;;;;;15.20;2.45;;;;;;;33.34;33.75;96625.13;5114247;27;20038;-76
2022/09/16 06:18:32;;;;;;;4.82;2.10;;;;;;;33.41;33.66;96617.41;5097423;27;20053;-76
2022/09/16 06:20:58;;;;;;;11.13;2.30;;;;;;;32.59;35.83;96623.06;5114180;27;20030;-76
2022/09/16 06:23:24;;;;;;;6.15;2.10;;;;;;;32.82;35.05;96627.53;5096738;27;20470;-76
2022/09/16 06:26:02;;;;;;;9.30;2.03;;;;;;;33.33;35.95;96637.31;5097192;27;20023;-75
2022/09/16 06:28:28;;;;;;;5.50;2.10;;;;;;;33.98;35.10;96650.19;5114009;27;20027;-76
2022/09/16 06:31:11;;;;;;;14.57;2.80;;;;;;;35.02;32.62;96636.44;5095878;27;20130;-76
2022/09/16 06:33:37;;;;;;;5.82;2.30;;;;;;;35.44;32.94;96656.63;5113651;27;20457;-78
2022/09/16 06:36:15;;;;;;;8.25;2.30;;;;;;;35.44;31.27;96631.59;5096604;27;20031;-77
2022/09/16 06:38:41;;;;;;;6.97;2.50;;;;;;;36.18;33.78;96668.22;5093150;28;20119;-77
2022/09/16 06:41:08;;;;;;;4.78;2.15;;;;;;;37.17;29.27;96652.72;5103357;28;20048;-76
2022/09/16 06:43:35;;;;;;;9.68;2.20;;;;;;;37.29;29.24;96645.69;5072881;28;20427;-77
2022/09/16 06:46:03;;;;;;;15.25;4.25;;;;;;;37.78;30.58;96654.09;5098905;28;20039;-78
2022/09/16 06:48:32;;;;;;;7.65;2.22;;;;;;;36.39;30.39;96627.28;5095912;28;20039;-77
2022/09/16 06:51:03;;;;;;;4.18;2.05;;;;;;;37.63;28.57;96643.03;5085320;28;20084;-77
2022/09/16 06:53:29;;;;;;;7.38;2.08;;;;;;;38.64;27.64;96642.22;5094055;28;20522;-78
2022/09/16 06:55:59;;;;;;;6.32;2.08;;;;;;;39.09;27.07;96651.28;5102543;28;20062;-78
2022/09/16 06:58:25;;;;;;;14.75;3.30;;;;;;;39.30;26.96;96638.72;5085352;28;20032;-77
2022/09/16 07:00:50;;;;;;;7.13;2.47;;;;;;;39.71;26.93;96653.03;5084067;28;20106;-77
2022/09/16 07:03:16;;;;;;;6.65;2.50;;;;;;;39.43;26.70;96632.41;5102304;28;20066;-77
2022/09/16 07:05:42;;;;;;;7.53;2.22;;;;;;;39.47;27.62;96641.88;5092516;28;20035;-77
2022/09/16 07:08:07;;;;;;;15.85;3.10;;;;;;;39.18;26.73;96615.91;5102438;28;20054;-76
2022/09/16 07:10:33;;;;;;;14.85;2.40;;;;;;;40.06;26.04;96642.09;5095942;28;20032;-77
2022/09/16 07:12:58;;;;;;;15.38;2.85;;;;;;;39.98;26.20;96627.94;5083564;28;20063;-77
2022/09/16 07:15:24;;;;;;;11.25;3.03;;;;;;;40.58;26.30;96648.56;5076033;28;20029;-79
2022/09/16 07:17:54;;;;;;;6.97;2.00;;;;;;;40.98;25.37;96633.78;5099593;28;20027;-78
2022/09/16 07:20:19;;;;;;;21.00;3.25;;;;;;;41.84;25.22;96646.00;5101279;28;20028;-77
2022/09/16 07:22:49;;;;;;;9.00;2.30;;;;;;;41.00;24.62;96625.06;5103777;28;20028;-77
2022/09/16 07:25:15;;;;;;;4.82;2.40;;;;;;;40.72;25.53;96621.38;5104206;28;20080;-78
2022/09/16 07:27:41;;;;;;;7.53;2.53;;;;;;;40.87;24.43;96607.03;5085169;28;20032;-78
2022/09/16 07:30:07;;;;;;;8.70;2.50;;;;;;;41.40;24.48;96624.22;5101264;28;20043;-77
2022/09/16 07:32:33;;;;;;;6.60;2.08;;;;;;;41.73;23.98;96610.81;5100708;28;20027;-79
2022/09/16 07:34:58;;;;;;;5.38;2.30;;;;;;;41.59;23.69;96598.81;5085193;28;20027;-79
2022/09/16 07:37:24;;;;;;;9.73;2.10;;;;;;;41.88;24.12;96606.84;5078262;28;20475;-78
2022/09/16 07:39:49;;;;;;;10.98;3.20;;;;;;;41.28;24.89;96606.22;5111670;27;20395;-78
2022/09/16 07:42:15;;;;;;;9.40;2.15;;;;;;;41.47;24.18;96596.53;5112028;27;20035;-78
2022/09/16 07:44:40;;;;;;;9.00;2.58;;;;;;;41.72;24.28;96605.53;5112607;27;20394;-79
2022/09/16 07:47:06;;;;;;;26.48;2.88;;;;;;;41.17;24.92;96599.13;5095625;27;20026;-76
2022/09/16 07:49:31;;;;;;;10.55;1.95;;;;;;;41.87;24.37;96614.44;5095326;27;20058;-77
2022/09/16 07:51:57;;;;;;;7.90;2.05;;;;;;;40.71;24.46;96585.19;5095318;27;20023;-78
2022/09/16 07:54:23;;;;;;;16.95;2.50;;;;;;;41.15;24.45;96604.25;5095128;27;20071;-78
2022/09/16 07:56:48;;;;;;;12.60;2.45;;;;;;;41.71;24.22;96607.50;5094714;27;20946;-78
2022/09/16 07:59:16;;;;;;;12.68;4.18;;;;;;;42.67;23.54;96619.22;5095117;27;20485;-78
2022/09/16 08:01:42;;;;;;;11.23;2.55;;;;;;;43.09;22.60;96601.72;5112019;27;20489;-79
2022/09/16 08:04:07;;;;;;;10.60;2.55;;;;;;;43.48;22.29;96616.91;5112382;27;20037;-78
2022/09/16 08:06:37;;;;;;;10.18;1.95;;;;;;;43.72;21.91;96600.34;5095229;27;20443;-79
2022/09/16 08:09:02;;;;;;;13.43;2.50;;;;;;;43.40;21.91;96589.56;5111940;27;20031;-78
2022/09/16 08:11:29;;;;;;;13.20;2.70;;;;;;;43.84;22.43;96602.56;5112072;27;20122;-78
2022/09/16 08:13:57;;;;;;;16.05;2.60;;;;;;;44.41;21.33;96594.75;5112100;28;20031;-78
2022/09/16 08:16:23;;;;;;;9.27;3.03;;;;;;;44.88;20.93;96588.00;5112978;27;20129;-79
2022/09/16 08:18:51;;;;;;;11.10;2.78;;;;;;;44.30;21.05;96562.41;5112693;28;20030;-79
2022/09/16 08:21:25;;;;;;;15.55;2.33;;;;;;;42.80;22.64;96555.50;5112733;27;20182;-79
2022/09/16 08:23:51;;;;;;;11.88;2.65;;;;;;;41.30;23.60;96528.09;5111573;27;20027;-78
2022/09/16 08:26:17;;;;;;;16.15;2.40;;;;;;;40.39;24.64;96533.63;5094891;28;20355;-79
2022/09/16 08:28:44;;;;;;;23.48;2.90;;;;;;;39.48;25.61;96542.69;5111637;28;20058;-78
2022/09/16 08:31:10;;;;;;;8.73;2.58;;;;;;;38.98;26.56;96541.44;5111603;28;20038;-79
2022/09/16 08:33:38;;;;;;;7.60;2.63;;;;;;;38.16;27.91;96534.25;5112297;28;20032;-78
2022/09/16 08:36:07;;;;;;;9.10;2.58;;;;;;;38.16;27.28;96554.63;5094881;28;20027;-79
2022/09/16 08:38:33;;;;;;;10.38;2.80;;;;;;;38.50;27.21;96549.00;5104185;28;20054;-79
2022/09/16 08:41:21;;;;;;;13.05;3.15;;;;;;;38.56;27.30;96547.81;5081833;28;20038;-79
2022/09/16 08:44:24;;;;;;;8.52;2.40;;;;;;;39.36;26.50;96562.75;5125458;28;20059;-79
2022/09/16 08:46:59;;;;;;;9.43;2.60;;;;;;;38.78;26.62;96533.28;5090291;28;20038;-78
2022/09/16 08:49:34;;;;;;;15.98;3.17;;;;;;;37.71;27.08;96510.34;5076828;28;20034;-79
2022/09/16 08:52:09;;;;;;;13.70;2.95;;;;;;;37.53;27.34;96517.47;5098663;28;20471;-79
2022/09/16 08:54:43;;;;;;;9.75;2.33;;;;;;;36.72;28.62;96515.13;5086213;28;20177;-78
2022/09/16 08:57:19;;;;;;;14.15;2.65;;;;;;;36.76;29.00;96516.22;5081447;28;20055;-79
2022/09/16 08:59:50;;;;;;;8.02;2.58;;;;;;;37.09;28.10;96531.41;5083048;28;20054;-78
2022/09/16 09:02:18;;;;;;;7.03;2.60;;;;;;;36.98;28.12;96534.53;5099905;28;20509;-78
2022/09/16 09:04:44;;;;;;;9.52;2.40;;;;;;;37.36;28.39;96534.59;5106925;28;20356;-79
2022/09/16 09:07:41;;;;;;;15.38;2.85;;;;;;;38.10;27.03;96538.22;5104593;28;20169;-79
2022/09/16 09:10:40;;;;;;;9.70;2.30;;;;;;;38.02;26.52;96541.66;5090535;28;20440;-78
2022/09/16 09:13:37;;;;;;;6.35;2.20;;;;;;;37.88;26.23;96535.88;5085490;28;20039;-79
2022/09/16 09:16:24;;;;;;;11.32;2.15;;;;;;;37.07;26.76;96521.69;5077942;28;20038;-79
2022/09/16 09:19:23;;;;;;;14.15;2.97;;;;;;;35.82;29.28;96539.25;5083491;28;20016;-79
2022/09/16 09:22:23;;;;;;;7.78;2.38;;;;;;;35.76;29.04;96553.47;5123980;27;20019;-79
2022/09/16 09:25:07;;;;;;;10.90;2.90;;;;;;;35.38;29.24;96556.78;5115984;27;20034;-78
2022/09/16 09:28:22;;;;;;;16.10;3.08;;;;;;;34.61;30.67;96552.88;5112776;28;20028;-78
2022/09/16 09:31:04;;;;;;;13.43;2.70;;;;;;;34.09;31.23;96547.25;5062446;28;20407;-78
2022/09/16 09:33:51;;;;;;;10.55;2.60;;;;;;;33.61;32.22;96555.78;5068822;28;20020;-79
2022/09/16 09:36:41;;;;;;;9.65;2.53;;;;;;;33.33;32.42;96562.44;5085558;28;20028;-79
2022/09/16 09:39:18;;;;;;;22.15;2.80;;;;;;;32.95;32.99;96559.78;5112703;28;20044;-78
2022/09/16 09:41:50;;;;;;;10.77;2.35;;;;;;;33.17;33.02;96574.47;5101276;28;20019;-78
2022/09/16 09:44:25;;;;;;;11.82;4.00;;;;;;;33.35;33.79;96587.94;5075819;28;20103;-79
2022/09/16 09:46:57;;;;;;;9.65;2.38;;;;;;;32.99;33.63;96585.88;5097692;28;20027;-78
2022/09/16 09:49:33;;;;;;;12.77;3.55;;;;;;;33.59;33.72;96608.78;5107705;28;20084;-78
2022/09/16 09:52:28;;;;;;;7.63;2.33;;;;;;;33.56;32.58;96598.13;5095961;28;20036;-79
2022/09/16 09:54:54;;;;;;;12.15;2.75;;;;;;;33.77;32.98;96602.00;5088767;28;20034;-78
2022/09/16 09:57:32;;;;;;;14.98;3.35;;;;;;;34.24;33.10;96591.00;5090059;28;20035;-78
2022/09/16 10:00:10;;;;;;;8.15;2.33;;;;;;;35.04;31.14;96593.34;5101808;27;20635;-79
2022/09/16 10:02:38;;;;;;;6.70;2.25;;;;;;;35.04;30.91;96573.88;5110135;28;20028;-79
2022/09/16 10:05:06;;;;;;;12.90;2.70;;;;;;;35.40;30.49;96583.19;5104119;28;20547;-78
2022/09/16 10:07:35;;;;;;;11.70;3.35;;;;;;;35.59;30.35;96587.16;5082765;28;20389;-79
2022/09/16 10:10:15;;;;;;;14.48;3.67;;;;;;;35.13;31.41;96574.25;5099535;28;20023;-80
2022/09/16 10:12:41;;;;;;;12.15;3.30;;;;;;;34.68;31.33;96575.69;5085012;28;20020;-79
2022/09/16 10:15:19;;;;;;;17.40;3.67;;;;;;;34.90;31.22;96583.00;5084026;28;20398;-79
2022/09/16 10:17:48;;;;;;;12.23;3.72;;;;;;;34.89;31.51;96598.03;5091502;28;20031;-77
2022/09/16 10:20:37;;;;;;;13.70;3.80;;;;;;;34.11;32.26;96577.56;5089185;28;20028;-79
2022/09/16 10:23:11;;;;;;;11.57;2.80;;;;;;;33.49;32.92;96589.22;5100372;28;20031;-79
2022/09/16 10:25:37;;;;;;;13.73;3.13;;;;;;;33.44;33.34;96604.97;5088093;28;20312;-78
2022/09/16 10:28:15;;;;;;;13.88;3.10;;;;;;;33.46;33.57;96609.16;5087312;28;20592;-78
2022/09/16 10:30:53;;;;;;;14.07;2.78;;;;;;;33.29;33.79;96610.38;5081585;28;20410;-78
2022/09/16 10:33:26;;;;;;;14.98;2.70;;;;;;;33.10;33.99;96623.75;5095241;28;20066;-79
2022/09/16 10:36:02;;;;;;;9.57;3.00;;;;;;;33.09;34.24;96635.94;5106744;28;20024;-77
2022/09/16 10:38:38;;;;;;;22.70;3.13;;;;;;;32.79;34.58;96632.75;5112029;28;20101;-77
2022/09/16 10:41:20;;;;;;;11.95;2.97;;;;;;;32.50;34.85;96646.72;5086825;28;20024;-77
2022/09/16 10:43:56;;;;;;;13.27;3.17;;;;;;;31.98;35.91;96651.72;5086778;28;20078;-77
2022/09/16 10:46:21;;;;;;;12.15;2.92;;;;;;;31.51;36.61;96666.91;5077883;28;20367;-78
2022/09/16 10:48:48;;;;;;;15.35;2.80;;;;;;;30.91;40.34;96678.38;5078096;28;20027;-77
2022/09/16 10:51:26;;;;;;;20.15;3.00;;;;;;;30.32;41.61;96715.38;5086675;28;20027;-79
2022/09/16 10:54:04;;;;;;;7.85;2.47;;;;;;;29.26;46.33;96719.97;5093989;28;20436;-79
2022/09/16 10:56:50;;;;;;;15.40;3.58;;;;;;;28.96;48.66;96758.47;5098802;28;20034;-79
2022/09/16 10:59:15;;;;;;;16.10;2.95;;;;;;;28.60;51.38;96780.44;5080637;28;20571;-78
2022/09/16 11:01:59;;;;;;;13.73;3.40;;;;;;;27.99;53.32;96825.16;5078028;28;20047;-79
2022/09/16 11:04:29;;;;;;;33.05;4.15;;;;;;;27.27;56.85;96855.72;5095901;28;20054;-79
2022/09/16 11:07:27;;;;;;;15.65;3.00;;;;;;;26.05;65.81;96881.91;5104660;28;20035;-77
2022/09/16 11:10:30;;;;;;;6.15;2.90;;;;;;;25.22;73.50;96870.22;5073030;28;20487;-78
2022/09/16 11:13:30;;;;;;;19.15;3.25;;;;;;;24.72;77.99;96856.81;5094348;28;20100;-76
2022/09/16 11:16:05;;;;;;;18.70;3.38;;;;;;;24.39;85.97;96858.47;5078570;28;20043;-76
2022/09/16 11:18:53;;;;;;;9.02;2.60;;;;;;;24.38;87.53;96859.50;5103334;28;20020;-76
2022/09/16 11:21:54;;;;;;;14.57;3.67;;;;;;;24.22;87.48;96852.41;5097441;28;20027;-79
2022/09/16 11:24:26;;;;;;;8.40;3.13;;;;;;;24.38;88.36;96848.56;5114258;27;20422;-79
2022/09/16 11:26:54;;;;;;;7.43;3.28;;;;;;;24.21;92.45;96846.09;5105352;28;20546;-79
2022/09/16 11:29:46;;;;;;;9.18;3.50;;;;;;;24.44;85.62;96836.81;5119816;27;20028;-79
2022/09/16 11:32:29;;;;;;;7.82;2.70;;;;;;;24.34;83.14;96825.38;5089759;28;20122;-79
2022/09/16 11:35:20;;;;;;;8.55;2.80;;;;;;;24.40;84.61;96830.91;5086267;28;20438;-78
2022/09/16 11:38:00;;;;;;;9.35;3.00;;;;;;;24.56;83.84;96830.59;5114415;27;20425;-80
2022/09/16 11:40:46;;;;;;;12.65;3.75;;;;;;;24.47;86.89;96820.88;5114147;27;20104;-79
2022/09/16 11:43:37;;;;;;;13.38;3.35;;;;;;;24.23;88.02;96808.50;5114373;27;20138;-80
2022/09/16 11:46:36;;;;;;;12.93;3.53;;;;;;;24.54;82.73;96802.63;5123729;27;20030;-80
2022/09/16 11:49:44;;;;;;;9.00;2.72;;;;;;;24.78;79.56;96787.59;5106549;27;20459;-79
2022/09/16 11:52:12;;;;;;;7.90;2.78;;;;;;;25.10;75.85;96808.03;5094068;27;20058;-79
2022/09/16 11:54:41;;;;;;;10.80;2.80;;;;;;;25.44;75.34;96823.53;5114609;27;20114;-79